Airfield :
LOGIN :

Register | Disclaimer

   EN    FR    IT 

 










Legend :    VFR   Marginal VFR   IFR   Intensive IFR   Very Intensive IFR
Visi :
Ceiling :
>= 8 km
>= 3000ft
5 to 8 km
1000 to 3000 ft
1500m to 5 km
500 to 1000 ft
800 to 1500m
200 to 500 ft
< 800m
< 200 ft
Symbols :   Thunderstorms  Fog  Heavy snow  Heavy precipitations  Wind > 20 kt
SIGMETs :     Misc.  Thunderstorms  Icing  Turbulence  Mountain Waves  Volcanic Ashes






- Airport Elevation : 794 ft


LKCV - Čáslav Air Base

CURRENT METAR :
  • 211600Z 08011KT 9999 -RA SCT040 BKN100 20/16 Q1008 NOSIG

EXPIRED METARs :
  • 211500Z 08009KT CAVOK 20/16 Q1008 NOSIG
  • 211400Z 09007KT 9999 -RA FEW027 BKN080 20/16 Q1008 NOSIG
  • 211330Z 08007KT 9999 -RA SCT040 OVC100 20/15 Q1008 NOSIG RMK BLU BLU
  • 211300Z 09007KT 9999 -RA NSC 20/15 Q1009 NOSIG RMK BLU BLU
  • 211230Z 13007KT 9999 -RA NSC 19/15 Q1009 NOSIG RMK BLU BLU
  • 211200Z 12008KT 9999 -RA NSC 19/15 Q1009 NOSIG RMK BLU BLU

TAF TAF LKCV
Valid from the 21 at 12:00 until the 22 at 12:00 UTC


211100Z 2112/2212 11013KT CAVOK
TEMPO 2112/2202 SHRA BKN030
PROB40
TEMPO 2112/2118 10018KT 6000 SHRA BKN026TCU
PROB30
TEMPO 2115/2118 4000 TSRA SCT022CB
BECMG 2202/2204 BKN025
BECMG 2207/2209 24012KT



MET'MAP, your aeronautical weather chart ! - Copyright ORBIFLY December 2007 - Disclaimer

ORBIFLY MET'MAP TEAM :

Programming & Development : Alexandra Zaïnal
Original concept : Baudouin d'Aumeries
Technical & hardware support : Manuel Goepfert
Assistance : Marc-Olivier Méhu




SOURCES & CREDITS :

   NOAA